createdAt,value
2023-02-13T00:01:37.081Z,100.00
2023-02-13T00:04:23.410Z,100.00
2023-02-13T00:07:11.843Z,100.00
2023-02-13T00:09:58.336Z,100.00
2023-02-13T00:12:44.734Z,100.00
2023-02-13T00:15:31.090Z,100.00
2023-02-13T00:18:17.606Z,100.00
2023-02-13T00:21:10.087Z,100.00
2023-02-13T00:23:56.811Z,100.00
2023-02-13T00:26:43.215Z,100.00
2023-02-13T00:29:29.336Z,100.00
2023-02-13T00:32:15.828Z,100.00
2023-02-13T00:35:02.263Z,100.00
2023-02-13T00:37:50.010Z,100.00
2023-02-13T00:40:36.629Z,100.00
2023-02-13T00:43:23.140Z,100.00
2023-02-13T00:46:09.686Z,100.00
2023-02-13T00:48:56.285Z,100.00
2023-02-13T00:51:42.609Z,100.00
2023-02-13T00:54:28.711Z,100.00
2023-02-13T00:57:15.081Z,100.00
2023-02-13T01:00:02.548Z,100.00
2023-02-13T01:02:48.861Z,100.00
2023-02-13T01:05:35.216Z,100.00
2023-02-13T01:08:22.589Z,100.00
2023-02-13T01:11:09.140Z,100.00
2023-02-13T01:13:55.428Z,100.00
2023-02-13T01:16:41.615Z,100.00
2023-02-13T01:19:28.090Z,100.00
2023-02-13T01:22:14.355Z,100.00
2023-02-13T01:25:00.560Z,100.00
2023-02-13T01:27:50.697Z,100.00
2023-02-13T01:30:37.016Z,100.00
2023-02-13T01:33:24.550Z,100.00
2023-02-13T01:36:12.480Z,100.00
2023-02-13T01:38:59.147Z,100.00
2023-02-13T01:41:45.769Z,100.00
2023-02-13T01:44:50.788Z,100.00
2023-02-13T01:47:45.278Z,100.00
2023-02-13T01:50:33.713Z,100.00
2023-02-13T01:53:29.666Z,100.00
2023-02-13T01:56:28.821Z,100.00
2023-02-13T01:59:29.319Z,100.00
2023-02-13T02:02:17.817Z,100.00
2023-02-13T02:05:06.429Z,100.00
2023-02-13T02:07:54.651Z,100.00
2023-02-13T02:10:43.475Z,100.00
2023-02-13T02:13:30.064Z,100.00
2023-02-13T02:16:23.173Z,100.00
2023-02-13T02:19:20.474Z,100.00
2023-02-13T02:22:25.106Z,100.00
2023-02-13T02:25:23.798Z,100.00
2023-02-13T02:28:40.005Z,100.00
2023-02-13T02:31:45.354Z,100.00
2023-02-13T02:38:26.868Z,100.00
2023-02-13T02:41:39.347Z,100.00
2023-02-13T02:44:28.921Z,100.00
2023-02-13T02:47:34.190Z,100.00
2023-02-13T02:50:34.327Z,100.00
2023-02-13T02:53:44.411Z,100.00
2023-02-13T02:56:44.087Z,100.00
2023-02-13T02:59:51.354Z,100.00
2023-02-13T03:02:56.566Z,100.00
2023-02-13T03:06:05.088Z,100.00
2023-02-13T03:09:14.882Z,100.00
2023-02-13T03:12:20.873Z,100.00
2023-02-13T03:15:08.436Z,100.00
2023-02-13T03:18:13.955Z,100.00
2023-02-13T03:21:52.743Z,100.00
2023-02-13T03:25:07.864Z,100.00
2023-02-13T03:28:19.292Z,100.00
2023-02-13T03:31:11.930Z,100.00
2023-02-13T03:34:17.116Z,100.00
2023-02-13T03:37:28.510Z,100.00
2023-02-13T03:40:22.702Z,100.00
2023-02-13T03:43:13.350Z,100.00
2023-02-13T03:46:02.497Z,100.00
2023-02-13T03:49:07.311Z,100.00
2023-02-13T03:51:59.744Z,100.00
2023-02-13T03:55:10.431Z,100.00
2023-02-13T03:58:21.929Z,100.00
2023-02-13T04:01:12.174Z,100.00
2023-02-13T04:04:03.710Z,100.00
2023-02-13T04:07:01.356Z,100.00
2023-02-13T04:09:47.846Z,100.00
2023-02-13T04:13:03.123Z,100.00
2023-02-13T04:16:03.069Z,100.00
2023-02-13T04:18:52.260Z,100.00
2023-02-13T04:21:42.647Z,100.00
2023-02-13T04:24:29.350Z,100.00
2023-02-13T04:27:16.946Z,100.00
2023-02-13T04:30:03.988Z,100.00
2023-02-13T04:32:51.764Z,100.00
2023-02-13T04:35:38.548Z,100.00
2023-02-13T04:38:24.819Z,100.00
2023-02-13T04:41:11.137Z,100.00
2023-02-13T04:43:57.778Z,100.00
2023-02-13T04:46:44.343Z,100.00
2023-02-13T04:49:30.573Z,100.00
2023-02-13T04:52:17.211Z,100.00
2023-02-13T04:55:04.035Z,100.00
2023-02-13T04:57:53.824Z,100.00
2023-02-13T05:00:40.535Z,100.00
2023-02-13T05:03:27.233Z,100.00
2023-02-13T05:06:13.537Z,100.00
2023-02-13T05:08:59.807Z,100.00
2023-02-13T05:11:46.184Z,100.00
2023-02-13T05:14:32.723Z,100.00
2023-02-13T05:17:18.979Z,100.00
2023-02-13T05:20:06.598Z,100.00
2023-02-13T05:23:13.364Z,100.00
2023-02-13T05:25:59.698Z,100.00
2023-02-13T05:29:04.638Z,100.00
2023-02-13T05:31:53.549Z,100.00
2023-02-13T05:34:39.889Z,100.00
2023-02-13T05:37:26.227Z,100.00
2023-02-13T05:40:13.430Z,100.00
2023-02-13T05:42:59.917Z,100.00
2023-02-13T05:45:46.310Z,100.00
2023-02-13T05:48:33.348Z,100.00
2023-02-13T05:51:20.547Z,100.00
2023-02-13T05:54:06.878Z,100.00
2023-02-13T05:56:53.361Z,100.00
2023-02-13T05:59:39.729Z,100.00
2023-02-13T06:02:26.119Z,100.00
2023-02-13T06:05:12.736Z,100.00
2023-02-13T06:07:59.288Z,100.00
2023-02-13T06:10:49.256Z,100.00
2023-02-13T06:13:35.860Z,100.00
2023-02-13T06:16:22.729Z,100.00
2023-02-13T06:19:09.401Z,100.00
2023-02-13T06:21:56.133Z,100.00
2023-02-13T06:24:42.746Z,100.00
2023-02-13T06:27:28.872Z,100.00
2023-02-13T06:30:16.392Z,100.00
2023-02-13T06:33:02.983Z,100.00
2023-02-13T06:35:49.548Z,100.00
2023-02-13T06:38:35.843Z,100.00
2023-02-13T06:41:22.332Z,100.00
2023-02-13T06:44:08.637Z,100.00
2023-02-13T06:46:54.840Z,100.00
2023-02-13T06:49:41.281Z,100.00
2023-02-13T06:52:30.252Z,100.00
2023-02-13T06:55:17.241Z,100.00
2023-02-13T06:58:03.561Z,100.00
2023-02-13T07:00:51.615Z,100.00
2023-02-13T07:03:37.902Z,100.00
2023-02-13T07:06:24.547Z,100.00
2023-02-13T07:09:13.339Z,100.00
2023-02-13T07:12:03.261Z,100.00
2023-02-13T07:14:49.559Z,100.00
2023-02-13T07:17:36.200Z,100.00
2023-02-13T07:20:22.440Z,100.00
2023-02-13T07:23:08.640Z,100.00
2023-02-13T07:25:54.993Z,100.00
2023-02-13T07:28:41.125Z,100.00
2023-02-13T07:31:27.534Z,100.00
2023-02-13T07:34:14.364Z,100.00
2023-02-13T07:37:00.728Z,100.00
2023-02-13T07:39:47.030Z,100.00
2023-02-13T07:42:34.915Z,100.00
2023-02-13T07:45:21.298Z,100.00
2023-02-13T07:48:07.617Z,100.00
2023-02-13T07:50:54.990Z,100.00
2023-02-13T07:53:41.499Z,100.00
2023-02-13T07:56:28.164Z,100.00
2023-02-13T07:59:14.394Z,100.00
2023-02-13T08:02:00.930Z,100.00
2023-02-13T08:04:47.497Z,100.00
2023-02-13T08:07:34.936Z,100.00
2023-02-13T08:10:40.150Z,100.00
2023-02-13T08:13:27.208Z,100.00
2023-02-13T08:16:13.692Z,100.00
2023-02-13T08:19:00.066Z,100.00
2023-02-13T08:21:46.641Z,100.00
2023-02-13T08:24:33.328Z,100.00
2023-02-13T08:27:19.928Z,100.00
2023-02-13T08:30:07.593Z,100.00
2023-02-13T08:32:54.668Z,100.00
2023-02-13T08:35:40.903Z,100.00
2023-02-13T08:38:27.133Z,100.00
2023-02-13T08:41:14.075Z,100.00
2023-02-13T08:44:00.183Z,100.00
2023-02-13T08:46:46.375Z,100.00
2023-02-13T08:49:33.848Z,100.00
2023-02-13T08:52:20.416Z,100.00
2023-02-13T08:55:06.944Z,100.00
2023-02-13T08:57:53.243Z,100.00
2023-02-13T09:00:39.481Z,100.00
2023-02-13T09:03:26.021Z,100.00
2023-02-13T09:06:12.717Z,100.00
2023-02-13T09:08:59.077Z,100.00
2023-02-13T09:11:45.428Z,100.00
2023-02-13T09:14:31.918Z,100.00
2023-02-13T09:17:19.678Z,100.00
2023-02-13T09:20:06.868Z,100.00
2023-02-13T09:22:54.927Z,100.00
2023-02-13T09:25:41.621Z,100.00
2023-02-13T09:28:29.766Z,100.00
2023-02-13T09:31:19.197Z,100.00
2023-02-13T09:34:05.849Z,100.00
2023-02-13T09:36:53.368Z,100.00
2023-02-13T09:39:39.721Z,100.00
2023-02-13T09:42:31.416Z,100.00
2023-02-13T09:45:21.506Z,100.00
2023-02-13T09:48:15.629Z,100.00
2023-02-13T09:51:02.289Z,100.00
2023-02-13T09:54:02.358Z,100.00
2023-02-13T09:57:00.387Z,100.00
2023-02-13T09:59:57.123Z,100.00
2023-02-13T10:02:58.975Z,100.00
2023-02-13T10:05:59.908Z,100.00
2023-02-13T10:09:13.318Z,100.00
2023-02-13T10:12:29.991Z,100.00
2023-02-13T10:15:16.454Z,100.00
2023-02-13T10:18:10.662Z,100.00
2023-02-13T10:21:02.263Z,100.00
2023-02-13T10:23:57.253Z,100.00
2023-02-13T10:26:46.904Z,100.00
2023-02-13T10:30:02.590Z,100.00
2023-02-13T10:33:19.054Z,100.00
2023-02-13T10:36:27.942Z,100.00
2023-02-13T10:39:24.261Z,100.00
2023-02-13T10:42:27.689Z,100.00
2023-02-13T10:45:20.671Z,100.00
2023-02-13T10:48:44.726Z,100.00
2023-02-13T10:51:49.681Z,100.00
2023-02-13T10:55:01.532Z,100.00
2023-02-13T10:58:03.982Z,100.00
2023-02-13T11:00:56.684Z,100.00
2023-02-13T11:03:42.973Z,100.00
2023-02-13T11:06:30.182Z,100.00
2023-02-13T11:09:16.891Z,100.00
2023-02-13T11:12:30.273Z,100.00
2023-02-13T11:15:29.364Z,100.00
2023-02-13T11:18:21.053Z,100.00
2023-02-13T11:21:19.103Z,100.00
2023-02-13T11:24:05.847Z,100.00
2023-02-13T11:27:02.708Z,100.00
2023-02-13T11:29:55.010Z,100.00
2023-02-13T11:32:41.607Z,100.00
2023-02-13T11:35:28.265Z,99.80
2023-02-13T11:38:20.660Z,98.09
2023-02-13T11:41:12.958Z,99.18
2023-02-13T11:44:04.727Z,97.42
2023-02-13T11:46:53.614Z,99.42
2023-02-13T11:49:46.109Z,97.66
2023-02-13T11:52:35.948Z,94.73
2023-02-13T11:55:34.327Z,95.58
2023-02-13T11:58:27.791Z,92.46
2023-02-13T12:01:20.072Z,92.19
2023-02-13T12:04:17.840Z,90.53
2023-02-13T12:07:15.969Z,89.70
2023-02-13T12:10:06.207Z,88.72
2023-02-13T12:13:11.144Z,89.66
2023-02-13T12:16:05.724Z,88.18
2023-02-13T12:18:55.838Z,86.94
2023-02-13T12:22:15.527Z,85.55
2023-02-13T12:25:14.091Z,87.73
2023-02-13T12:28:45.221Z,84.31
2023-02-13T12:31:58.236Z,85.88
2023-02-13T12:34:54.000Z,85.32
2023-02-13T12:37:59.236Z,83.88
2023-02-13T12:41:04.651Z,82.83
2023-02-13T12:44:10.300Z,78.76
2023-02-13T12:47:17.771Z,78.07
2023-02-13T12:50:22.412Z,77.25
2023-02-13T12:53:21.803Z,76.45
2023-02-13T12:56:21.743Z,76.59
2023-02-13T12:59:43.476Z,75.24
2023-02-13T13:02:56.393Z,72.79
2023-02-13T13:05:58.751Z,72.98
2023-02-13T13:09:19.338Z,72.26
2023-02-13T13:12:45.269Z,71.12
2023-02-13T13:15:48.128Z,71.15
2023-02-13T13:18:49.427Z,69.90
2023-02-13T13:21:48.042Z,71.67
2023-02-13T13:24:48.778Z,71.43
2023-02-13T13:27:44.233Z,70.79
2023-02-13T13:30:36.021Z,69.99
2023-02-13T13:33:25.244Z,69.36
2023-02-13T13:36:30.312Z,68.75
2023-02-13T13:39:35.362Z,70.90
2023-02-13T13:42:24.881Z,70.45
2023-02-13T13:45:33.114Z,70.74
2023-02-13T13:48:47.189Z,68.35
2023-02-13T13:51:34.034Z,70.54
2023-02-13T13:54:25.593Z,69.38
2023-02-13T13:57:12.982Z,68.84
2023-02-13T14:00:24.674Z,69.60
2023-02-13T14:03:33.321Z,70.71
2023-02-13T14:06:25.238Z,69.80
2023-02-13T14:09:27.249Z,69.95
2023-02-13T14:12:29.182Z,72.15
2023-02-13T14:15:33.996Z,71.56
2023-02-13T14:18:23.681Z,71.99
2023-02-13T14:21:10.129Z,73.21
2023-02-13T14:24:00.763Z,73.00
2023-02-13T14:27:04.711Z,74.45
2023-02-13T14:29:52.220Z,75.37
2023-02-13T14:32:41.111Z,74.94
2023-02-13T14:35:31.118Z,76.50
2023-02-13T14:38:24.665Z,77.85
2023-02-13T14:41:42.410Z,78.53
2023-02-13T14:44:29.327Z,77.98
2023-02-13T14:47:29.656Z,75.95
2023-02-13T14:50:21.929Z,76.54
2023-02-13T14:53:18.893Z,76.19
2023-02-13T14:56:11.740Z,77.63
2023-02-13T14:59:10.262Z,77.39
2023-02-13T15:02:07.540Z,77.82
2023-02-13T15:04:59.754Z,77.26
2023-02-13T15:08:08.568Z,76.99
2023-02-13T15:10:56.166Z,77.12
2023-02-13T15:13:42.827Z,77.93
2023-02-13T15:16:30.196Z,78.63
2023-02-13T15:19:18.601Z,78.81
2023-02-13T15:22:06.550Z,78.33
2023-02-13T15:24:53.086Z,77.42
2023-02-13T15:27:44.330Z,77.73
2023-02-13T15:30:36.303Z,78.88
2023-02-13T15:33:24.798Z,78.56
2023-02-13T15:36:25.354Z,77.82
2023-02-13T15:39:18.556Z,78.48
2023-02-13T15:42:05.144Z,78.80
2023-02-13T15:44:56.973Z,78.97
2023-02-13T15:47:45.498Z,80.09
2023-02-13T15:50:35.877Z,81.88
2023-02-13T15:53:22.605Z,83.55
2023-02-13T15:56:14.853Z,84.62
2023-02-13T15:59:02.793Z,86.02
2023-02-13T16:01:51.802Z,87.39
2023-02-13T16:04:40.140Z,88.12
2023-02-13T16:07:26.587Z,87.50
2023-02-13T16:10:34.630Z,88.94
2023-02-13T16:13:21.002Z,88.51
2023-02-13T16:16:11.072Z,90.68
2023-02-13T16:18:57.767Z,90.97
2023-02-13T16:21:48.465Z,91.01
2023-02-13T16:24:36.350Z,91.77
2023-02-13T16:27:27.457Z,93.23
2023-02-13T16:30:23.483Z,94.55
2023-02-13T16:33:15.748Z,95.96
2023-02-13T16:36:11.421Z,97.39
2023-02-13T16:38:57.853Z,98.51
2023-02-13T16:41:44.176Z,99.78
2023-02-13T16:44:32.530Z,100.00
2023-02-13T16:47:25.220Z,99.18
2023-02-13T16:50:16.294Z,100.00
2023-02-13T16:53:04.074Z,100.00
2023-02-13T16:56:01.257Z,100.00
2023-02-13T16:58:47.973Z,100.00
2023-02-13T17:01:38.277Z,100.00
2023-02-13T17:04:25.213Z,100.00
2023-02-13T17:07:14.027Z,100.00
2023-02-13T17:10:06.753Z,100.00
2023-02-13T17:12:55.178Z,100.00
2023-02-13T17:15:43.940Z,100.00
2023-02-13T17:18:30.475Z,100.00
2023-02-13T17:21:16.780Z,100.00
2023-02-13T17:24:03.810Z,100.00
2023-02-13T17:26:50.350Z,100.00
2023-02-13T17:29:37.105Z,100.00
2023-02-13T17:32:26.113Z,100.00
2023-02-13T17:35:14.132Z,100.00
2023-02-13T17:38:00.768Z,100.00
2023-02-13T17:40:47.560Z,100.00
2023-02-13T17:43:33.917Z,100.00
2023-02-13T17:46:20.256Z,100.00
2023-02-13T17:49:06.763Z,100.00
2023-02-13T17:51:53.029Z,100.00
2023-02-13T17:54:39.146Z,100.00
2023-02-13T17:57:25.708Z,100.00
2023-02-13T18:00:12.223Z,100.00
2023-02-13T18:03:00.587Z,100.00
2023-02-13T18:05:48.830Z,100.00
2023-02-13T18:08:35.112Z,100.00
2023-02-13T18:11:21.305Z,100.00
2023-02-13T18:14:07.817Z,100.00
2023-02-13T18:16:54.020Z,100.00
2023-02-13T18:19:40.710Z,100.00
2023-02-13T18:22:27.209Z,100.00
2023-02-13T18:25:13.952Z,100.00
2023-02-13T18:28:00.122Z,100.00
2023-02-13T18:30:46.831Z,100.00
2023-02-13T18:33:33.216Z,100.00
2023-02-13T18:36:19.712Z,100.00
2023-02-13T18:39:07.953Z,100.00
2023-02-13T18:41:54.381Z,100.00
2023-02-13T18:44:41.225Z,100.00
2023-02-13T18:47:27.750Z,100.00
2023-02-13T18:50:14.428Z,100.00
2023-02-13T18:53:00.896Z,100.00
2023-02-13T18:55:47.443Z,100.00
2023-02-13T18:58:34.493Z,100.00
2023-02-13T19:01:21.755Z,100.00
2023-02-13T19:04:08.202Z,100.00
2023-02-13T19:06:54.732Z,100.00
2023-02-13T19:09:41.073Z,100.00
2023-02-13T19:12:27.315Z,100.00
2023-02-13T19:15:13.957Z,100.00
2023-02-13T19:18:00.118Z,100.00
2023-02-13T19:20:46.583Z,100.00
2023-02-13T19:23:34.005Z,100.00
2023-02-13T19:26:25.724Z,100.00
2023-02-13T19:29:12.192Z,100.00
2023-02-13T19:31:58.501Z,100.00
2023-02-13T19:34:45.878Z,100.00
2023-02-13T19:37:43.017Z,100.00
2023-02-13T19:40:30.454Z,100.00
2023-02-13T19:43:16.548Z,100.00
2023-02-13T19:46:05.033Z,100.00
2023-02-13T19:48:51.810Z,100.00
2023-02-13T19:51:38.506Z,100.00
2023-02-13T19:54:25.333Z,100.00
2023-02-13T19:57:12.057Z,100.00
2023-02-13T20:00:01.708Z,100.00
2023-02-13T20:03:03.746Z,100.00
2023-02-13T20:05:50.078Z,100.00
2023-02-13T20:08:36.785Z,100.00
2023-02-13T20:11:23.088Z,100.00
2023-02-13T20:14:14.462Z,100.00
2023-02-13T20:17:01.206Z,100.00
2023-02-13T20:19:47.616Z,100.00
2023-02-13T20:22:34.038Z,100.00
2023-02-13T20:25:22.013Z,100.00
2023-02-13T20:28:11.210Z,100.00
2023-02-13T20:30:58.166Z,100.00
2023-02-13T20:33:46.118Z,100.00
2023-02-13T20:36:33.446Z,100.00
2023-02-13T20:39:19.640Z,100.00
2023-02-13T20:42:06.592Z,100.00
2023-02-13T20:44:53.402Z,100.00
2023-02-13T20:47:41.766Z,100.00
2023-02-13T20:50:27.934Z,100.00
2023-02-13T20:53:14.267Z,100.00
2023-02-13T20:56:13.448Z,100.00
2023-02-13T20:59:00.613Z,100.00
2023-02-13T21:01:46.963Z,100.00
2023-02-13T21:04:34.225Z,100.00
2023-02-13T21:07:20.373Z,100.00
2023-02-13T21:10:07.141Z,100.00
2023-02-13T21:12:53.628Z,100.00
2023-02-13T21:15:40.027Z,100.00
2023-02-13T21:18:26.276Z,100.00
2023-02-13T21:21:13.531Z,100.00
2023-02-13T21:24:06.933Z,100.00
2023-02-13T21:26:54.127Z,100.00
2023-02-13T21:29:40.510Z,100.00
2023-02-13T21:32:26.769Z,100.00
2023-02-13T21:35:13.022Z,100.00
2023-02-13T21:37:59.412Z,100.00
2023-02-13T21:40:45.845Z,100.00
2023-02-13T21:43:37.506Z,100.00
2023-02-13T21:46:32.332Z,100.00
2023-02-13T21:49:19.123Z,100.00
2023-02-13T21:52:05.443Z,100.00
2023-02-13T21:54:51.617Z,100.00
2023-02-13T21:57:38.512Z,100.00
2023-02-13T22:00:25.120Z,100.00
2023-02-13T22:03:11.667Z,100.00
2023-02-13T22:05:57.973Z,100.00
2023-02-13T22:08:44.320Z,100.00
2023-02-13T22:11:31.870Z,100.00
2023-02-13T22:14:18.273Z,100.00
2023-02-13T22:17:04.981Z,100.00
2023-02-13T22:19:51.561Z,100.00
2023-02-13T22:22:37.803Z,100.00
2023-02-13T22:25:24.407Z,100.00
2023-02-13T22:28:10.961Z,100.00
2023-02-13T22:30:57.688Z,100.00
2023-02-13T22:33:47.606Z,100.00
2023-02-13T22:36:40.478Z,100.00
2023-02-13T22:39:26.945Z,100.00
2023-02-13T22:42:14.095Z,100.00
2023-02-13T22:45:00.645Z,100.00
2023-02-13T22:47:46.805Z,100.00
2023-02-13T22:50:34.180Z,100.00
2023-02-13T22:53:20.807Z,100.00
2023-02-13T22:56:08.253Z,100.00
2023-02-13T22:58:54.797Z,100.00
2023-02-13T23:01:41.043Z,100.00
2023-02-13T23:04:27.517Z,100.00
2023-02-13T23:07:18.150Z,100.00
2023-02-13T23:10:04.888Z,100.00
2023-02-13T23:12:51.277Z,100.00
2023-02-13T23:15:38.174Z,100.00
2023-02-13T23:18:24.788Z,100.00
2023-02-13T23:21:11.126Z,100.00
2023-02-13T23:23:57.866Z,100.00
2023-02-13T23:26:44.172Z,100.00
2023-02-13T23:29:30.409Z,100.00
2023-02-13T23:32:17.028Z,100.00
2023-02-13T23:35:03.243Z,100.00
2023-02-13T23:37:49.674Z,100.00
2023-02-13T23:40:35.952Z,100.00
2023-02-13T23:43:22.204Z,100.00
2023-02-13T23:46:08.639Z,100.00
2023-02-13T23:48:55.045Z,100.00
2023-02-13T23:51:41.423Z,100.00
2023-02-13T23:54:28.227Z,100.00
2023-02-13T23:57:14.424Z,100.00
